createdAt,value
2018-04-06T00:00:30.675Z,5.60
2018-04-06T00:02:58.614Z,5.60
2018-04-06T00:05:26.221Z,5.60
2018-04-06T00:07:53.843Z,5.50
2018-04-06T00:10:21.473Z,5.50
2018-04-06T00:12:49.201Z,5.50
2018-04-06T00:15:17.152Z,5.40
2018-04-06T00:17:44.692Z,5.40
2018-04-06T00:20:12.181Z,5.40
2018-04-06T00:22:39.679Z,5.40
2018-04-06T00:25:07.639Z,5.30
2018-04-06T00:27:35.577Z,5.30
2018-04-06T00:30:03.078Z,5.30
2018-04-06T00:32:31.013Z,5.20
2018-04-06T00:34:58.568Z,5.20
2018-04-06T00:37:26.516Z,5.20
2018-04-06T00:39:54.054Z,5.20
2018-04-06T00:42:21.959Z,5.20
2018-04-06T00:44:49.477Z,5.20
2018-04-06T00:47:17.482Z,5.20
2018-04-06T00:49:45.071Z,5.20
2018-04-06T00:52:12.561Z,5.20
2018-04-06T00:54:40.068Z,5.20
2018-04-06T00:57:07.614Z,5.20
2018-04-06T00:59:35.583Z,5.20
2018-04-06T01:02:03.461Z,5.20
2018-04-06T01:04:31.356Z,5.20
2018-04-06T01:06:58.868Z,5.20
2018-04-06T01:09:26.390Z,5.20
2018-04-06T01:11:53.918Z,5.20
2018-04-06T01:14:22.401Z,5.20
2018-04-06T01:16:50.394Z,5.20
2018-04-06T01:19:17.907Z,5.20
2018-04-06T01:21:45.412Z,5.20
2018-04-06T01:24:13.335Z,5.20
2018-04-06T01:26:40.831Z,5.20
2018-04-06T01:29:09.120Z,5.20
2018-04-06T01:31:36.987Z,5.20
2018-04-06T01:34:04.871Z,5.20
2018-04-06T01:36:32.380Z,5.20
2018-04-06T01:38:59.879Z,5.10
2018-04-06T01:41:27.757Z,5.10
2018-04-06T01:43:55.725Z,5.10
2018-04-06T01:46:23.607Z,5.00
2018-04-06T01:48:51.559Z,5.00
2018-04-06T01:51:19.155Z,5.00
2018-04-06T01:53:46.731Z,5.00
2018-04-06T01:56:14.463Z,5.00
2018-04-06T01:58:42.644Z,5.00
2018-04-06T02:01:10.547Z,4.90
2018-04-06T02:03:38.039Z,4.90
2018-04-06T02:06:05.550Z,4.90
2018-04-06T02:08:33.439Z,4.90
2018-04-06T02:11:00.954Z,4.90
2018-04-06T02:13:28.473Z,4.90
2018-04-06T02:15:57.025Z,4.90
2018-04-06T02:18:24.916Z,4.80
2018-04-06T02:20:52.795Z,4.80
2018-04-06T02:23:20.269Z,4.80
2018-04-06T02:25:48.312Z,4.70
2018-04-06T02:28:16.209Z,4.70
2018-04-06T02:30:43.728Z,4.70
2018-04-06T02:33:11.216Z,4.70
2018-04-06T02:35:38.749Z,4.60
2018-04-06T02:38:06.235Z,4.60
2018-04-06T02:40:34.468Z,4.60
2018-04-06T02:43:01.974Z,4.60
2018-04-06T02:45:29.872Z,4.50
2018-04-06T02:47:57.412Z,4.50
2018-04-06T02:50:25.339Z,4.40
2018-04-06T02:52:52.831Z,4.40
2018-04-06T02:55:20.831Z,4.40
2018-04-06T02:57:48.716Z,4.40
2018-04-06T03:00:16.231Z,4.40
2018-04-06T03:02:43.793Z,4.40
2018-04-06T03:05:11.277Z,4.40
2018-04-06T03:07:39.165Z,4.30
2018-04-06T03:10:07.141Z,4.30
2018-04-06T03:12:34.683Z,4.30
2018-04-06T03:15:02.216Z,4.20
2018-04-06T03:17:30.368Z,4.20
2018-04-06T03:19:57.855Z,4.20
2018-04-06T03:22:25.357Z,4.20
2018-04-06T03:24:53.245Z,4.20
2018-04-06T03:27:20.819Z,4.20
2018-04-06T03:29:48.303Z,4.20
2018-04-06T03:32:15.816Z,4.20
2018-04-06T03:34:43.691Z,4.20
2018-04-06T03:37:11.680Z,4.20
2018-04-06T03:39:39.150Z,4.20
2018-04-06T03:42:06.687Z,4.30
2018-04-06T03:44:34.208Z,4.30
2018-04-06T03:47:01.724Z,4.30
2018-04-06T03:49:29.663Z,4.20
2018-04-06T03:51:57.186Z,4.30
2018-04-06T03:54:24.661Z,4.20
2018-04-06T03:56:52.170Z,4.30
2018-04-06T03:59:20.088Z,4.30
2018-04-06T04:01:47.571Z,4.30
2018-04-06T04:04:15.781Z,4.30
2018-04-06T04:06:43.653Z,4.30
2018-04-06T04:09:11.572Z,4.30
2018-04-06T04:11:39.057Z,4.30
2018-04-06T04:14:06.597Z,4.30
2018-04-06T04:16:34.095Z,4.30
2018-04-06T04:19:01.613Z,4.30
2018-04-06T04:21:29.117Z,4.30
2018-04-06T04:23:56.681Z,4.40
2018-04-06T04:26:24.164Z,4.40
2018-04-06T04:28:51.803Z,4.40
2018-04-06T04:31:19.307Z,4.40
2018-04-06T04:33:47.241Z,4.40
2018-04-06T04:36:14.718Z,4.40
2018-04-06T04:38:42.293Z,4.40
2018-04-06T04:41:10.275Z,4.40
2018-04-06T04:43:38.218Z,4.40
2018-04-06T04:46:05.716Z,4.40
2018-04-06T04:48:33.611Z,4.40
2018-04-06T04:51:01.075Z,4.30
2018-04-06T04:53:28.557Z,4.40
2018-04-06T04:55:56.160Z,4.40
2018-04-06T04:58:23.716Z,4.40
2018-04-06T05:00:51.256Z,4.40
2018-04-06T05:03:18.723Z,4.40
2018-04-06T05:05:46.324Z,4.40
2018-04-06T05:08:14.202Z,4.40
2018-04-06T05:10:42.083Z,4.40
2018-04-06T05:13:09.559Z,4.40
2018-04-06T05:15:37.399Z,4.40
2018-04-06T05:18:05.286Z,4.40
2018-04-06T05:20:32.823Z,4.40
2018-04-06T05:23:00.698Z,4.50
2018-04-06T05:25:28.228Z,4.50
2018-04-06T05:27:55.703Z,4.50
2018-04-06T05:30:23.206Z,4.50
2018-04-06T05:32:50.683Z,4.50
2018-04-06T05:35:18.154Z,4.50
2018-04-06T05:37:45.735Z,4.50
2018-04-06T05:40:13.267Z,4.50
2018-04-06T05:42:40.818Z,4.50
2018-04-06T05:45:08.307Z,4.60
2018-04-06T05:47:35.819Z,4.60
2018-04-06T05:50:03.332Z,4.60
2018-04-06T05:52:30.839Z,4.60
2018-04-06T05:54:58.340Z,4.60
2018-04-06T05:57:25.843Z,4.60
2018-04-06T05:59:53.342Z,4.60
2018-04-06T06:02:21.230Z,4.70
2018-04-06T06:04:49.103Z,4.80
2018-04-06T06:07:16.625Z,4.80
2018-04-06T06:09:44.110Z,4.80
2018-04-06T06:12:12.025Z,4.90
2018-04-06T06:14:39.565Z,4.90
2018-04-06T06:17:07.065Z,5.00
2018-04-06T06:19:34.598Z,5.00
2018-04-06T06:22:02.067Z,5.10
2018-04-06T06:24:29.579Z,5.10
2018-04-06T06:26:57.094Z,5.20
2018-04-06T06:29:24.613Z,5.30
2018-04-06T06:31:52.132Z,5.40
2018-04-06T06:34:19.653Z,5.50
2018-04-06T06:36:47.546Z,5.60
2018-04-06T06:39:15.092Z,5.60
2018-04-06T06:41:42.991Z,5.70
2018-04-06T06:44:10.486Z,5.70
2018-04-06T06:46:38.075Z,5.70
2018-04-06T06:49:05.563Z,5.80
2018-04-06T06:51:33.110Z,5.80
2018-04-06T06:54:01.010Z,5.90
2018-04-06T06:56:28.496Z,5.90
2018-04-06T06:58:55.984Z,6.00
2018-04-06T07:01:23.581Z,6.00
2018-04-06T07:03:51.120Z,6.10
2018-04-06T07:06:19.111Z,6.20
2018-04-06T07:08:46.997Z,6.30
2018-04-06T07:11:14.477Z,6.30
2018-04-06T07:13:41.948Z,6.30
2018-04-06T07:16:09.445Z,6.40
2018-04-06T07:18:36.931Z,6.50
2018-04-06T07:21:04.809Z,6.60
2018-04-06T07:23:32.702Z,6.70
2018-04-06T07:26:00.207Z,6.70
2018-04-06T07:28:27.692Z,6.70
2018-04-06T07:30:55.418Z,6.80
2018-04-06T07:33:22.909Z,6.90
2018-04-06T07:35:50.519Z,7.00
2018-04-06T07:38:18.013Z,7.10
2018-04-06T07:40:45.507Z,7.20
2018-04-06T07:43:13.700Z,7.30
2018-04-06T07:45:41.594Z,7.40
2018-04-06T07:48:09.089Z,7.40
2018-04-06T07:50:36.575Z,7.50
2018-04-06T07:53:04.068Z,7.60
2018-04-06T07:55:31.957Z,7.80
2018-04-06T07:57:59.457Z,7.80
2018-04-06T08:00:27.068Z,7.80
2018-04-06T08:02:54.575Z,7.90
2018-04-06T08:05:22.065Z,8.00
2018-04-06T08:07:49.602Z,8.10
2018-04-06T08:10:17.074Z,8.20
2018-04-06T08:12:44.672Z,8.20
2018-04-06T08:15:12.562Z,8.40
2018-04-06T08:17:40.113Z,8.40
2018-04-06T08:20:07.994Z,8.60
2018-04-06T08:22:35.753Z,8.60
2018-04-06T08:25:03.627Z,8.70
2018-04-06T08:27:31.962Z,8.80
2018-04-06T08:29:59.862Z,8.80
2018-04-06T08:32:27.447Z,8.90
2018-04-06T08:34:54.936Z,9.00
2018-04-06T08:37:22.657Z,9.10
2018-04-06T08:39:50.879Z,9.30
2018-04-06T08:42:18.378Z,9.30
2018-04-06T08:44:45.855Z,9.40
2018-04-06T08:47:13.728Z,9.60
2018-04-06T08:49:41.209Z,9.60
2018-04-06T08:52:09.104Z,9.80
2018-04-06T08:54:36.654Z,9.80
2018-04-06T08:57:04.520Z,10.10
2018-04-06T08:59:32.037Z,10.10
2018-04-06T09:01:59.548Z,10.20
2018-04-06T09:04:27.502Z,10.50
2018-04-06T09:06:55.428Z,10.60
2018-04-06T09:09:22.996Z,10.60
2018-04-06T09:11:50.482Z,10.80
2018-04-06T09:14:18.043Z,10.90
2018-04-06T09:16:45.543Z,11.10
2018-04-06T09:19:13.453Z,11.60
2018-04-06T09:21:41.085Z,11.60
2018-04-06T09:24:08.622Z,11.90
2018-04-06T09:26:36.548Z,12.50
2018-04-06T09:29:04.126Z,12.60
2018-04-06T09:31:31.640Z,12.90
2018-04-06T09:33:59.576Z,13.60
2018-04-06T09:36:27.071Z,13.60
2018-04-06T09:38:55.098Z,14.40
2018-04-06T09:41:22.641Z,14.30
2018-04-06T09:43:50.154Z,14.80
2018-04-06T09:46:17.791Z,15.20
2018-04-06T09:48:45.322Z,15.60
2018-04-06T09:51:12.833Z,16.10
2018-04-06T09:53:40.704Z,16.60
2018-04-06T09:56:08.308Z,17.00
2018-04-06T09:58:36.189Z,17.60
2018-04-06T10:01:06.327Z,17.60
2018-04-06T10:03:33.867Z,18.00
2018-04-06T10:06:01.750Z,18.90
2018-04-06T10:08:29.280Z,18.90
2018-04-06T10:10:56.799Z,19.10
2018-04-06T10:13:24.354Z,19.30
2018-04-06T10:15:52.526Z,19.40
2018-04-06T10:18:20.115Z,19.60
2018-04-06T10:20:47.748Z,19.80
2018-04-06T10:23:15.734Z,19.80
2018-04-06T10:25:43.354Z,19.80
2018-04-06T10:28:11.325Z,20.00
2018-04-06T10:30:38.861Z,19.90
2018-04-06T10:33:06.422Z,19.90
2018-04-06T10:35:34.689Z,20.10
2018-04-06T10:38:02.227Z,20.30
2018-04-06T10:40:30.300Z,20.30
2018-04-06T10:42:57.801Z,20.30
2018-04-06T10:45:25.320Z,20.30
2018-04-06T10:47:53.239Z,20.20
2018-04-06T10:50:20.712Z,20.20
2018-04-06T10:52:48.343Z,20.20
2018-04-06T10:55:16.013Z,20.20
2018-04-06T10:57:43.709Z,20.20
2018-04-06T11:00:11.236Z,20.20
2018-04-06T11:02:38.742Z,20.10
2018-04-06T11:05:06.247Z,20.00
2018-04-06T11:07:34.239Z,19.70
2018-04-06T11:10:01.758Z,19.70
2018-04-06T11:12:29.660Z,19.50
2018-04-06T11:14:57.225Z,19.40
2018-04-06T11:17:25.148Z,19.20
2018-04-06T11:19:52.661Z,19.20
2018-04-06T11:22:20.180Z,19.00
2018-04-06T11:24:47.815Z,18.90
2018-04-06T11:27:15.350Z,18.80
2018-04-06T11:29:43.275Z,18.70
2018-04-06T11:32:10.873Z,18.70
2018-04-06T11:34:39.028Z,18.60
2018-04-06T11:37:06.527Z,18.60
2018-04-06T11:39:34.087Z,18.40
2018-04-06T11:42:02.020Z,18.10
2018-04-06T11:44:29.568Z,18.10
2018-04-06T11:46:57.122Z,18.10
2018-04-06T11:49:24.613Z,18.00
2018-04-06T11:51:52.155Z,18.00
2018-04-06T11:54:19.881Z,18.10
2018-04-06T11:56:47.886Z,18.00
2018-04-06T11:59:15.391Z,18.00
2018-04-06T12:01:42.972Z,17.80
2018-04-06T12:04:10.479Z,17.80
2018-04-06T12:06:37.989Z,17.80
2018-04-06T12:09:07.190Z,17.80
2018-04-06T12:11:34.690Z,17.70
2018-04-06T12:14:02.273Z,17.70
2018-04-06T12:16:29.804Z,17.70
2018-04-06T12:18:57.725Z,17.70
2018-04-06T12:21:25.366Z,17.70
2018-04-06T12:23:52.907Z,17.70
2018-04-06T12:26:20.904Z,17.60
2018-04-06T12:28:48.424Z,17.60
2018-04-06T12:31:15.933Z,17.60
2018-04-06T12:33:43.446Z,17.70
2018-04-06T12:36:11.053Z,17.70
2018-04-06T12:38:38.586Z,17.80
2018-04-06T12:41:06.098Z,17.80
2018-04-06T12:43:33.615Z,17.80
2018-04-06T12:46:01.099Z,17.90
2018-04-06T12:48:28.622Z,17.90
2018-04-06T12:50:56.224Z,18.00
2018-04-06T12:53:23.793Z,18.10
2018-04-06T12:55:51.960Z,18.10
2018-04-06T12:58:19.454Z,18.10
2018-04-06T13:00:46.955Z,18.10
2018-04-06T13:03:14.508Z,18.20
2018-04-06T13:05:42.062Z,18.30
2018-04-06T13:08:09.693Z,18.40
2018-04-06T13:10:37.567Z,18.30
2018-04-06T13:13:05.130Z,18.30
2018-04-06T13:15:32.639Z,18.40
2018-04-06T13:18:00.474Z,18.50
2018-04-06T13:20:27.963Z,18.50
2018-04-06T13:22:55.501Z,18.60
2018-04-06T13:25:23.072Z,18.50
2018-04-06T13:27:50.589Z,18.50
2018-04-06T13:30:18.106Z,18.50
2018-04-06T13:32:45.618Z,18.60
2018-04-06T13:35:13.147Z,18.60
2018-04-06T13:37:40.683Z,18.70
2018-04-06T13:40:08.237Z,18.70
2018-04-06T13:42:35.882Z,18.70
2018-04-06T13:45:03.438Z,18.80
2018-04-06T13:47:30.919Z,18.80
2018-04-06T13:49:58.794Z,18.90
2018-04-06T13:52:26.343Z,18.90
2018-04-06T13:54:54.230Z,19.00
2018-04-06T13:57:21.812Z,19.00
2018-04-06T13:59:49.336Z,19.10
2018-04-06T14:02:16.955Z,19.30
2018-04-06T14:04:44.454Z,19.40
2018-04-06T14:07:11.953Z,19.50
2018-04-06T14:09:39.830Z,19.80
2018-04-06T14:12:07.304Z,19.80
2018-04-06T14:14:34.819Z,19.80
2018-04-06T14:17:02.716Z,20.10
2018-04-06T14:19:30.615Z,20.20
2018-04-06T14:21:58.175Z,20.20
2018-04-06T14:24:25.934Z,20.30
2018-04-06T14:26:53.458Z,20.30
2018-04-06T14:29:20.931Z,20.40
2018-04-06T14:31:48.415Z,20.50
2018-04-06T14:34:15.948Z,20.60
2018-04-06T14:36:43.467Z,20.60
2018-04-06T14:39:11.015Z,20.70
2018-04-06T14:41:38.571Z,20.70
2018-04-06T14:44:06.128Z,20.90
2018-04-06T14:46:34.163Z,21.10
2018-04-06T14:49:01.751Z,21.20
2018-04-06T14:51:29.329Z,21.20
2018-04-06T14:53:58.859Z,21.40
2018-04-06T14:56:28.507Z,21.40
2018-04-06T14:58:56.749Z,21.40
2018-04-06T15:01:24.418Z,21.40
2018-04-06T15:03:51.924Z,21.40
2018-04-06T15:06:19.439Z,21.30
2018-04-06T15:08:47.308Z,21.30
2018-04-06T15:11:15.440Z,21.20
2018-04-06T15:13:42.969Z,21.20
2018-04-06T15:16:10.511Z,21.20
2018-04-06T15:18:38.246Z,21.20
2018-04-06T15:21:05.760Z,21.20
2018-04-06T15:23:33.283Z,21.20
2018-04-06T15:26:01.259Z,21.10
2018-04-06T15:28:29.228Z,21.00
2018-04-06T15:30:56.759Z,21.00
2018-04-06T15:33:25.065Z,20.90
2018-04-06T15:35:52.576Z,20.90
2018-04-06T15:38:20.126Z,20.70
2018-04-06T15:40:47.631Z,20.60
2018-04-06T15:43:15.264Z,20.50
2018-04-06T15:45:43.110Z,20.30
2018-04-06T15:48:12.401Z,20.30
2018-04-06T15:50:40.339Z,20.20
2018-04-06T15:53:07.991Z,20.20
2018-04-06T15:55:35.512Z,20.10
2018-04-06T15:58:04.340Z,19.90
2018-04-06T16:00:31.935Z,19.90
2018-04-06T16:02:59.971Z,19.80
2018-04-06T16:05:27.495Z,19.70
2018-04-06T16:07:55.011Z,19.50
2018-04-06T16:10:22.549Z,19.40
2018-04-06T16:12:50.458Z,19.20
2018-04-06T16:15:17.954Z,19.20
2018-04-06T16:17:46.140Z,19.10
2018-04-06T16:20:13.726Z,19.10
2018-04-06T16:22:41.583Z,18.90
2018-04-06T16:25:09.546Z,18.80
2018-04-06T16:27:37.100Z,18.80
2018-04-06T16:30:04.611Z,18.60
2018-04-06T16:32:32.116Z,18.50
2018-04-06T16:34:59.677Z,18.40
2018-04-06T16:37:27.226Z,18.30
2018-04-06T16:39:54.798Z,18.10
2018-04-06T16:42:22.292Z,18.00
2018-04-06T16:44:49.898Z,17.90
2018-04-06T16:47:17.812Z,17.80
2018-04-06T16:49:45.420Z,17.80
2018-04-06T16:52:13.352Z,17.70
2018-04-06T16:54:40.881Z,17.70
2018-04-06T16:57:08.435Z,17.60
2018-04-06T16:59:35.963Z,17.60
2018-04-06T17:02:03.557Z,17.50
2018-04-06T17:04:31.053Z,17.40
2018-04-06T17:06:58.694Z,17.40
2018-04-06T17:09:26.211Z,17.30
2018-04-06T17:11:53.746Z,17.20
2018-04-06T17:14:21.754Z,17.10
2018-04-06T17:16:49.360Z,17.00
2018-04-06T17:19:16.839Z,16.90
2018-04-06T17:21:44.402Z,16.80
2018-04-06T17:24:12.831Z,16.70
2018-04-06T17:26:40.356Z,16.60
2018-04-06T17:29:07.843Z,16.60
2018-04-06T17:31:35.414Z,16.50
2018-04-06T17:34:03.001Z,16.50
2018-04-06T17:36:31.005Z,16.40
2018-04-06T17:38:58.735Z,16.40
2018-04-06T17:41:27.390Z,16.30
2018-04-06T17:43:54.857Z,16.30
2018-04-06T17:46:22.478Z,16.20
2018-04-06T17:48:49.982Z,16.20
2018-04-06T17:51:17.483Z,16.10
2018-04-06T17:53:45.394Z,16.00
2018-04-06T17:56:12.974Z,16.00
2018-04-06T17:58:40.485Z,15.90
2018-04-06T18:01:08.377Z,15.80
2018-04-06T18:03:35.901Z,15.80
2018-04-06T18:06:03.412Z,15.80
2018-04-06T18:08:30.962Z,15.70
2018-04-06T18:10:58.462Z,15.70
2018-04-06T18:13:26.009Z,15.60
2018-04-06T18:15:53.481Z,15.60
2018-04-06T18:18:21.037Z,15.50
2018-04-06T18:20:48.558Z,15.50
2018-04-06T18:23:16.484Z,15.40
2018-04-06T18:25:43.991Z,15.40
2018-04-06T18:28:11.950Z,15.30
2018-04-06T18:30:39.499Z,15.30
2018-04-06T18:33:07.051Z,15.20
2018-04-06T18:35:34.593Z,15.20
2018-04-06T18:38:02.162Z,15.10
2018-04-06T18:40:29.798Z,15.00
2018-04-06T18:42:57.765Z,14.90
2018-04-06T18:45:25.672Z,14.90
2018-04-06T18:47:53.213Z,14.90
2018-04-06T18:50:21.162Z,14.80
2018-04-06T18:52:48.745Z,14.80
2018-04-06T18:55:16.825Z,14.70
2018-04-06T18:57:44.771Z,14.60
2018-04-06T19:00:12.800Z,14.60
2018-04-06T19:02:40.326Z,14.60
2018-04-06T19:05:08.306Z,14.50
2018-04-06T19:07:36.233Z,14.40
2018-04-06T19:10:03.819Z,14.40
2018-04-06T19:12:31.471Z,14.40
2018-04-06T19:14:59.221Z,14.30
2018-04-06T19:17:26.726Z,14.30
2018-04-06T19:19:54.294Z,14.30
2018-04-06T19:22:21.794Z,14.20
2018-04-06T19:24:49.287Z,14.20
2018-04-06T19:27:16.888Z,14.20
2018-04-06T19:29:44.402Z,14.10
2018-04-06T19:32:11.968Z,14.10
2018-04-06T19:34:39.604Z,14.00
2018-04-06T19:37:07.233Z,14.00
2018-04-06T19:39:34.749Z,14.00
2018-04-06T19:42:02.408Z,13.90
2018-04-06T19:44:29.973Z,13.90
2018-04-06T19:46:59.351Z,13.90
2018-04-06T19:49:28.982Z,13.80
2018-04-06T19:51:56.937Z,13.80
2018-04-06T19:54:24.918Z,13.70
2018-04-06T19:56:52.918Z,13.60
2018-04-06T19:59:20.413Z,13.60
2018-04-06T20:01:48.033Z,13.60
2018-04-06T20:04:15.529Z,13.60
2018-04-06T20:06:44.004Z,13.50
2018-04-06T20:09:11.653Z,13.50
2018-04-06T20:11:39.218Z,13.40
2018-04-06T20:14:06.801Z,13.40
2018-04-06T20:16:34.441Z,13.40
2018-04-06T20:19:02.037Z,13.40
2018-04-06T20:21:29.564Z,13.40
2018-04-06T20:23:57.148Z,13.30
2018-04-06T20:26:24.662Z,13.30
2018-04-06T20:28:53.045Z,13.20
2018-04-06T20:31:20.631Z,13.20
2018-04-06T20:33:48.705Z,13.20
2018-04-06T20:36:16.697Z,13.10
2018-04-06T20:38:44.283Z,13.10
2018-04-06T20:41:11.841Z,13.10
2018-04-06T20:43:39.493Z,13.00
2018-04-06T20:46:07.079Z,13.00
2018-04-06T20:48:34.594Z,13.00
2018-04-06T20:51:02.569Z,12.90
2018-04-06T20:53:30.490Z,12.90
2018-04-06T20:55:57.981Z,12.90
2018-04-06T20:58:25.487Z,12.90
2018-04-06T21:00:53.363Z,12.80
2018-04-06T21:03:20.871Z,12.80
2018-04-06T21:05:48.371Z,12.80
2018-04-06T21:08:16.331Z,12.80
2018-04-06T21:10:43.885Z,12.70
2018-04-06T21:13:11.405Z,12.70
2018-04-06T21:15:39.249Z,12.60
2018-04-06T21:18:07.205Z,12.60
2018-04-06T21:20:34.708Z,12.60
2018-04-06T21:23:02.186Z,12.60
2018-04-06T21:25:29.732Z,12.60
2018-04-06T21:27:57.205Z,12.60
2018-04-06T21:30:24.711Z,12.50
2018-04-06T21:32:52.168Z,12.50
2018-04-06T21:35:20.096Z,12.50
2018-04-06T21:37:47.613Z,12.50
2018-04-06T21:40:15.830Z,12.50
2018-04-06T21:42:43.298Z,12.50
2018-04-06T21:45:10.821Z,12.50
2018-04-06T21:47:38.745Z,12.40
2018-04-06T21:50:06.252Z,12.40
2018-04-06T21:52:33.824Z,12.40
2018-04-06T21:55:01.704Z,12.30
2018-04-06T21:57:29.636Z,12.30
2018-04-06T21:59:57.260Z,12.30
2018-04-06T22:02:24.784Z,12.30
2018-04-06T22:04:52.391Z,12.20
2018-04-06T22:07:20.290Z,12.20
2018-04-06T22:09:47.802Z,12.20
2018-04-06T22:12:15.768Z,12.20
2018-04-06T22:14:43.758Z,12.20
2018-04-06T22:17:11.272Z,12.20
2018-04-06T22:19:39.753Z,12.10
2018-04-06T22:22:07.293Z,12.10
2018-04-06T22:24:34.840Z,12.10
2018-04-06T22:27:02.404Z,12.00
2018-04-06T22:29:30.036Z,12.00
2018-04-06T22:31:57.577Z,12.00
2018-04-06T22:34:25.162Z,11.90
2018-04-06T22:36:52.712Z,11.80
2018-04-06T22:39:20.236Z,11.80
2018-04-06T22:41:47.741Z,11.70
2018-04-06T22:44:15.317Z,11.70
2018-04-06T22:46:42.830Z,11.70
2018-04-06T22:49:10.337Z,11.60
2018-04-06T22:51:37.958Z,11.60
2018-04-06T22:54:05.477Z,11.50
2018-04-06T22:56:32.990Z,11.50
2018-04-06T22:59:00.574Z,11.40
2018-04-06T23:01:28.086Z,11.40
2018-04-06T23:03:56.300Z,11.30
2018-04-06T23:06:23.811Z,11.30
2018-04-06T23:08:51.883Z,11.30
2018-04-06T23:11:19.512Z,11.20
2018-04-06T23:13:47.040Z,11.20
2018-04-06T23:16:14.914Z,11.10
2018-04-06T23:18:42.461Z,11.10
2018-04-06T23:21:09.968Z,11.00
2018-04-06T23:23:37.449Z,10.90
2018-04-06T23:26:05.061Z,10.80
2018-04-06T23:28:32.964Z,10.70
2018-04-06T23:31:00.469Z,10.70
2018-04-06T23:33:28.045Z,10.60
2018-04-06T23:35:55.979Z,10.40
2018-04-06T23:38:23.492Z,10.40
2018-04-06T23:40:51.448Z,10.30
2018-04-06T23:43:19.553Z,10.20
2018-04-06T23:45:47.119Z,10.20
2018-04-06T23:48:15.041Z,10.10
2018-04-06T23:50:42.527Z,10.10
2018-04-06T23:53:10.526Z,10.00
2018-04-06T23:55:38.483Z,9.90
2018-04-06T23:58:06.060Z,9.90
